createdAt,value
2018-11-06T00:00:06.358Z,0.00
2018-11-06T00:01:06.270Z,0.00
2018-11-06T00:02:06.193Z,0.00
2018-11-06T00:03:06.105Z,0.00
2018-11-06T00:04:06.019Z,0.00
2018-11-06T00:05:05.946Z,0.00
2018-11-06T00:06:05.856Z,0.00
2018-11-06T00:07:05.781Z,0.00
2018-11-06T00:08:05.692Z,0.00
2018-11-06T00:09:05.651Z,0.00
2018-11-06T00:10:05.532Z,0.00
2018-11-06T00:11:05.444Z,0.00
2018-11-06T00:12:05.369Z,0.00
2018-11-06T00:13:05.282Z,0.00
2018-11-06T00:14:05.195Z,0.00
2018-11-06T00:15:05.118Z,0.00
2018-11-06T00:16:05.032Z,0.00
2018-11-06T00:17:04.958Z,0.00
2018-11-06T00:18:04.869Z,0.00
2018-11-06T00:19:04.798Z,0.00
2018-11-06T00:20:04.712Z,0.00
2018-11-06T00:21:04.619Z,0.00
2018-11-06T00:22:04.545Z,0.00
2018-11-06T00:23:04.458Z,0.00
2018-11-06T00:24:04.382Z,0.00
2018-11-06T00:25:04.295Z,0.00
2018-11-06T00:26:04.209Z,0.00
2018-11-06T00:27:04.134Z,0.00
2018-11-06T00:28:04.045Z,0.00
2018-11-06T00:29:03.970Z,0.00
2018-11-06T00:30:03.883Z,0.00
2018-11-06T00:31:04.045Z,0.00
2018-11-06T00:32:03.723Z,0.00
2018-11-06T00:33:03.634Z,0.00
2018-11-06T00:34:03.576Z,0.00
2018-11-06T00:35:03.471Z,0.00
2018-11-06T00:36:03.384Z,0.00
2018-11-06T00:37:03.310Z,0.00
2018-11-06T00:38:03.234Z,0.00
2018-11-06T00:39:03.147Z,0.00
2018-11-06T00:40:03.071Z,0.00
2018-11-06T00:41:02.972Z,0.00
2018-11-06T00:42:02.897Z,0.00
2018-11-06T00:43:02.811Z,0.00
2018-11-06T00:44:02.735Z,0.00
2018-11-06T00:45:02.647Z,0.00
2018-11-06T00:46:02.561Z,0.00
2018-11-06T00:47:02.485Z,0.00
2018-11-06T00:48:02.397Z,0.00
2018-11-06T00:49:02.326Z,0.00
2018-11-06T00:50:02.236Z,0.00
2018-11-06T00:51:02.162Z,0.00
2018-11-06T00:52:02.073Z,0.00
2018-11-06T00:53:01.988Z,0.00
2018-11-06T00:54:01.912Z,0.00
2018-11-06T00:55:01.823Z,0.00
2018-11-06T00:56:01.738Z,0.00
2018-11-06T00:57:01.661Z,0.00
2018-11-06T00:58:01.573Z,0.00
2018-11-06T00:59:01.499Z,0.00
2018-11-06T01:00:01.412Z,0.00
2018-11-06T01:01:01.326Z,0.00
2018-11-06T01:02:01.249Z,0.00
2018-11-06T01:03:01.161Z,0.00
2018-11-06T01:04:01.087Z,0.00
2018-11-06T01:05:00.999Z,0.00
2018-11-06T01:06:00.916Z,0.00
2018-11-06T01:07:00.838Z,0.00
2018-11-06T01:08:00.750Z,0.00
2018-11-06T01:09:00.675Z,0.00
2018-11-06T01:10:00.588Z,0.00
2018-11-06T01:11:00.500Z,0.00
2018-11-06T01:12:00.425Z,0.00
2018-11-06T01:13:00.339Z,0.00
2018-11-06T01:14:00.251Z,0.00
2018-11-06T01:15:00.175Z,0.00
2018-11-06T01:16:00.092Z,0.00
2018-11-06T01:17:00.015Z,0.00
2018-11-06T01:17:59.938Z,0.00
2018-11-06T01:18:59.851Z,0.00
2018-11-06T01:19:59.765Z,0.00
2018-11-06T01:20:59.675Z,0.00
2018-11-06T01:21:59.601Z,0.00
2018-11-06T01:22:59.514Z,0.00
2018-11-06T01:23:59.439Z,0.00
2018-11-06T01:24:59.351Z,0.00
2018-11-06T01:25:59.268Z,0.00
2018-11-06T01:26:59.189Z,0.00
2018-11-06T01:27:59.101Z,0.00
2018-11-06T01:28:59.028Z,0.00
2018-11-06T01:29:58.942Z,0.00
2018-11-06T01:30:59.103Z,0.00
2018-11-06T01:31:58.776Z,0.00
2018-11-06T01:32:58.690Z,0.00
2018-11-06T01:33:58.602Z,0.00
2018-11-06T01:34:58.528Z,0.00
2018-11-06T01:35:58.440Z,0.00
2018-11-06T01:36:58.366Z,0.00
2018-11-06T01:37:58.277Z,0.00
2018-11-06T01:38:58.193Z,0.00
2018-11-06T01:39:58.115Z,0.00
2018-11-06T01:40:58.028Z,0.00
2018-11-06T01:41:57.953Z,0.00
2018-11-06T01:42:57.866Z,0.00
2018-11-06T01:43:57.778Z,0.00
2018-11-06T01:44:57.703Z,0.00
2018-11-06T01:45:57.617Z,0.00
2018-11-06T01:46:57.548Z,0.00
2018-11-06T01:47:57.453Z,0.00
2018-11-06T01:48:57.367Z,0.00
2018-11-06T01:49:57.292Z,0.00
2018-11-06T01:50:57.205Z,0.00
2018-11-06T01:51:57.129Z,0.00
2018-11-06T01:52:57.044Z,0.00
2018-11-06T01:53:56.955Z,0.00
2018-11-06T01:54:56.881Z,0.00
2018-11-06T01:55:56.792Z,0.00
2018-11-06T01:56:56.717Z,0.00
2018-11-06T01:57:56.629Z,0.00
2018-11-06T01:58:56.544Z,0.00
2018-11-06T01:59:56.468Z,0.00
2018-11-06T02:00:56.381Z,0.00
2018-11-06T02:01:56.305Z,0.00
2018-11-06T02:02:56.218Z,0.00
2018-11-06T02:03:56.144Z,0.00
2018-11-06T02:04:56.056Z,0.00
2018-11-06T02:05:55.968Z,0.00
2018-11-06T02:06:55.884Z,0.00
2018-11-06T02:07:55.839Z,0.00
2018-11-06T02:08:55.719Z,0.00
2018-11-06T02:09:55.644Z,0.00
2018-11-06T02:10:55.559Z,0.00
2018-11-06T02:11:55.470Z,0.00
2018-11-06T02:12:55.396Z,0.00
2018-11-06T02:13:55.307Z,0.00
2018-11-06T02:14:55.232Z,0.00
2018-11-06T02:15:55.145Z,0.00
2018-11-06T02:16:55.058Z,0.00
2018-11-06T02:17:54.997Z,0.00
2018-11-06T02:18:54.896Z,0.00
2018-11-06T02:19:54.823Z,0.00
2018-11-06T02:20:55.032Z,0.00
2018-11-06T02:21:54.645Z,0.00
2018-11-06T02:22:54.571Z,0.00
2018-11-06T02:23:54.482Z,0.00
2018-11-06T02:24:54.408Z,0.00
2018-11-06T02:25:54.322Z,0.00
2018-11-06T02:26:54.233Z,0.00
2018-11-06T02:27:54.159Z,0.00
2018-11-06T02:28:54.076Z,0.00
2018-11-06T02:29:53.984Z,0.00
2018-11-06T02:30:53.921Z,0.00
2018-11-06T02:31:53.822Z,0.00
2018-11-06T02:32:53.747Z,0.00
2018-11-06T02:33:53.659Z,0.00
2018-11-06T02:34:53.571Z,0.00
2018-11-06T02:35:53.497Z,0.00
2018-11-06T02:36:53.409Z,0.00
2018-11-06T02:37:53.334Z,0.00
2018-11-06T02:38:53.248Z,0.00
2018-11-06T02:39:53.160Z,0.00
2018-11-06T02:40:53.089Z,0.00
2018-11-06T02:41:53.003Z,0.00
2018-11-06T02:42:52.911Z,0.00
2018-11-06T02:43:52.835Z,0.00
2018-11-06T02:44:52.749Z,0.00
2018-11-06T02:45:52.673Z,0.00
2018-11-06T02:46:52.585Z,0.00
2018-11-06T02:47:52.500Z,0.00
2018-11-06T02:48:52.424Z,0.00
2018-11-06T02:49:52.335Z,0.00
2018-11-06T02:50:52.262Z,0.00
2018-11-06T02:51:52.173Z,0.00
2018-11-06T02:52:52.091Z,0.00
2018-11-06T02:53:52.011Z,0.00
2018-11-06T02:54:51.925Z,0.00
2018-11-06T02:55:51.882Z,0.00
2018-11-06T02:56:51.761Z,0.00
2018-11-06T02:57:51.691Z,0.00
2018-11-06T02:58:51.599Z,0.00
2018-11-06T02:59:51.512Z,0.00
2018-11-06T03:00:51.425Z,0.00
2018-11-06T03:01:51.350Z,0.00
2018-11-06T03:02:51.262Z,0.00
2018-11-06T03:03:51.175Z,0.00
2018-11-06T03:04:51.101Z,0.00
2018-11-06T03:05:51.013Z,0.00
2018-11-06T03:06:50.937Z,0.00
2018-11-06T03:07:50.851Z,0.00
2018-11-06T03:08:50.764Z,0.00
2018-11-06T03:09:50.688Z,0.00
2018-11-06T03:10:50.603Z,0.00
2018-11-06T03:11:50.514Z,0.00
2018-11-06T03:12:50.453Z,0.00
2018-11-06T03:13:50.352Z,0.00
2018-11-06T03:14:50.265Z,0.00
2018-11-06T03:15:50.188Z,0.00
2018-11-06T03:16:50.189Z,0.00
2018-11-06T03:17:50.027Z,0.00
2018-11-06T03:18:49.943Z,0.00
2018-11-06T03:19:49.853Z,0.00
2018-11-06T03:20:49.782Z,0.00
2018-11-06T03:21:49.689Z,0.00
2018-11-06T03:22:49.614Z,0.00
2018-11-06T03:23:49.527Z,0.00
2018-11-06T03:24:49.440Z,0.00
2018-11-06T03:25:49.365Z,0.00
2018-11-06T03:26:49.292Z,0.00
2018-11-06T03:27:49.190Z,0.00
2018-11-06T03:28:49.118Z,0.00
2018-11-06T03:29:49.039Z,0.00
2018-11-06T03:30:49.191Z,0.00
2018-11-06T03:31:48.868Z,0.00
2018-11-06T03:32:48.783Z,0.00
2018-11-06T03:33:48.704Z,0.00
2018-11-06T03:34:48.616Z,0.00
2018-11-06T03:35:48.533Z,0.00
2018-11-06T03:36:48.454Z,0.00
2018-11-06T03:37:48.365Z,0.00
2018-11-06T03:38:48.279Z,0.00
2018-11-06T03:39:48.204Z,0.00
2018-11-06T03:40:48.129Z,0.00
2018-11-06T03:41:48.041Z,0.00
2018-11-06T03:42:47.959Z,0.00
2018-11-06T03:43:47.867Z,0.00
2018-11-06T03:44:47.791Z,0.00
2018-11-06T03:45:47.705Z,0.00
2018-11-06T03:46:47.617Z,0.00
2018-11-06T03:47:47.554Z,0.00
2018-11-06T03:48:47.456Z,0.00
2018-11-06T03:49:47.370Z,0.00
2018-11-06T03:50:47.292Z,0.00
2018-11-06T03:51:47.206Z,0.00
2018-11-06T03:52:47.131Z,0.00
2018-11-06T03:53:47.042Z,0.00
2018-11-06T03:54:46.955Z,0.00
2018-11-06T03:55:46.880Z,0.00
2018-11-06T03:56:46.793Z,0.00
2018-11-06T03:57:46.718Z,0.00
2018-11-06T03:58:46.632Z,0.00
2018-11-06T03:59:46.544Z,0.00
2018-11-06T04:00:46.469Z,0.00
2018-11-06T04:01:46.383Z,0.00
2018-11-06T04:02:46.293Z,0.00
2018-11-06T04:03:46.219Z,0.00
2018-11-06T04:04:46.131Z,0.00
2018-11-06T04:05:46.046Z,0.00
2018-11-06T04:06:45.968Z,0.00
2018-11-06T04:07:45.882Z,0.00
2018-11-06T04:08:45.807Z,0.00
2018-11-06T04:09:45.719Z,0.00
2018-11-06T04:10:45.634Z,0.00
2018-11-06T04:11:45.561Z,0.00
2018-11-06T04:12:45.469Z,0.00
2018-11-06T04:13:45.382Z,0.00
2018-11-06T04:14:45.308Z,0.00
2018-11-06T04:15:45.222Z,0.00
2018-11-06T04:16:45.145Z,0.00
2018-11-06T04:17:45.064Z,0.00
2018-11-06T04:18:44.971Z,0.00
2018-11-06T04:19:44.896Z,0.00
2018-11-06T04:20:44.816Z,0.00
2018-11-06T04:21:44.721Z,0.00
2018-11-06T04:22:44.646Z,0.00
2018-11-06T04:23:44.561Z,0.00
2018-11-06T04:24:44.474Z,0.00
2018-11-06T04:25:44.397Z,0.00
2018-11-06T04:26:44.310Z,0.00
2018-11-06T04:27:44.237Z,0.00
2018-11-06T04:28:44.160Z,0.00
2018-11-06T04:29:44.061Z,0.00
2018-11-06T04:30:43.986Z,0.00
2018-11-06T04:31:43.898Z,0.00
2018-11-06T04:32:43.811Z,0.00
2018-11-06T04:33:43.735Z,0.00
2018-11-06T04:34:43.648Z,0.00
2018-11-06T04:35:43.576Z,0.00
2018-11-06T04:36:43.486Z,0.00
2018-11-06T04:37:43.417Z,0.00
2018-11-06T04:38:43.323Z,0.00
2018-11-06T04:39:43.237Z,0.00
2018-11-06T04:40:43.148Z,0.00
2018-11-06T04:41:43.087Z,0.00
2018-11-06T04:42:42.987Z,0.00
2018-11-06T04:43:42.899Z,0.00
2018-11-06T04:44:42.824Z,0.00
2018-11-06T04:45:42.737Z,0.00
2018-11-06T04:46:42.651Z,0.00
2018-11-06T04:47:42.575Z,0.00
2018-11-06T04:48:42.488Z,0.00
2018-11-06T04:49:42.416Z,0.00
2018-11-06T04:50:42.324Z,0.00
2018-11-06T04:51:42.239Z,0.00
2018-11-06T04:52:42.163Z,0.00
2018-11-06T04:53:42.075Z,0.00
2018-11-06T04:54:41.988Z,0.00
2018-11-06T04:55:41.916Z,0.00
2018-11-06T04:56:41.825Z,0.00
2018-11-06T04:57:41.738Z,0.00
2018-11-06T04:58:41.664Z,0.00
2018-11-06T04:59:41.588Z,0.00
2018-11-06T05:00:41.501Z,0.00
2018-11-06T05:01:41.413Z,0.00
2018-11-06T05:02:41.326Z,0.00
2018-11-06T05:03:41.251Z,0.00
2018-11-06T05:04:41.165Z,0.00
2018-11-06T05:05:41.076Z,0.00
2018-11-06T05:06:41.043Z,0.00
2018-11-06T05:07:40.914Z,0.00
2018-11-06T05:08:40.836Z,0.00
2018-11-06T05:09:40.765Z,0.00
2018-11-06T05:10:40.666Z,0.00
2018-11-06T05:11:40.578Z,0.00
2018-11-06T05:12:40.502Z,0.00
2018-11-06T05:13:40.415Z,0.00
2018-11-06T05:14:40.341Z,0.00
2018-11-06T05:15:40.254Z,0.00
2018-11-06T05:16:40.166Z,0.00
2018-11-06T05:17:40.093Z,0.00
2018-11-06T05:18:40.002Z,0.00
2018-11-06T05:19:39.916Z,0.00
2018-11-06T05:20:39.844Z,0.00
2018-11-06T05:21:39.753Z,0.00
2018-11-06T05:22:39.666Z,0.00
2018-11-06T05:23:39.592Z,0.00
2018-11-06T05:24:39.503Z,0.00
2018-11-06T05:25:39.459Z,0.00
2018-11-06T05:26:39.343Z,0.00
2018-11-06T05:27:39.254Z,0.00
2018-11-06T05:28:39.168Z,0.00
2018-11-06T05:29:39.093Z,0.00
2018-11-06T05:30:39.256Z,0.00
2018-11-06T05:31:38.918Z,0.00
2018-11-06T05:32:38.846Z,0.00
2018-11-06T05:33:38.755Z,0.00
2018-11-06T05:34:38.692Z,0.00
2018-11-06T05:35:38.593Z,0.00
2018-11-06T05:36:38.506Z,0.00
2018-11-06T05:37:38.429Z,0.00
2018-11-06T05:38:38.343Z,4.00
2018-11-06T05:39:38.306Z,0.00
2018-11-06T05:40:38.180Z,0.00
2018-11-06T05:41:38.093Z,4.00
2018-11-06T05:42:38.005Z,0.00
2018-11-06T05:43:37.933Z,4.00
2018-11-06T05:44:37.846Z,4.00
2018-11-06T05:45:37.821Z,8.00
2018-11-06T05:46:37.681Z,8.00
2018-11-06T05:47:37.596Z,8.00
2018-11-06T05:48:37.505Z,8.00
2018-11-06T05:49:37.431Z,12.00
2018-11-06T05:50:37.344Z,12.00
2018-11-06T05:51:37.257Z,16.00
2018-11-06T05:52:37.181Z,16.00
2018-11-06T05:53:37.095Z,20.00
2018-11-06T05:54:37.006Z,24.00
2018-11-06T05:55:36.932Z,24.00
2018-11-06T05:56:36.845Z,32.00
2018-11-06T05:57:36.756Z,36.00
2018-11-06T05:58:36.681Z,40.00
2018-11-06T05:59:36.594Z,48.00
2018-11-06T06:00:36.788Z,52.00
2018-11-06T06:01:36.432Z,56.00
2018-11-06T06:02:36.348Z,64.00
2018-11-06T06:03:36.261Z,72.00
2018-11-06T06:04:36.186Z,80.00
2018-11-06T06:05:36.096Z,92.00
2018-11-06T06:06:36.008Z,100.00
2018-11-06T06:07:35.933Z,108.00
2018-11-06T06:08:35.850Z,120.00
2018-11-06T06:09:35.758Z,128.00
2018-11-06T06:10:35.683Z,140.00
2018-11-06T06:11:35.596Z,152.00
2018-11-06T06:12:35.508Z,164.00
2018-11-06T06:13:35.423Z,180.00
2018-11-06T06:14:35.346Z,196.00
2018-11-06T06:15:35.259Z,208.00
2018-11-06T06:16:35.193Z,224.00
2018-11-06T06:17:35.097Z,236.00
2018-11-06T06:18:35.009Z,252.00
2018-11-06T06:19:34.923Z,268.00
2018-11-06T06:20:35.097Z,284.00
2018-11-06T06:21:34.759Z,304.00
2018-11-06T06:22:34.726Z,320.00
2018-11-06T06:23:34.597Z,336.00
2018-11-06T06:24:34.512Z,352.00
2018-11-06T06:25:34.423Z,368.00
2018-11-06T06:26:34.349Z,388.00
2018-11-06T06:27:34.260Z,404.00
2018-11-06T06:28:34.264Z,420.00
2018-11-06T06:29:34.098Z,440.00
2018-11-06T06:30:34.012Z,460.00
2018-11-06T06:31:33.935Z,480.00
2018-11-06T06:32:33.849Z,500.00
2018-11-06T06:33:33.774Z,516.00
2018-11-06T06:34:33.736Z,536.00
2018-11-06T06:35:33.599Z,556.00
2018-11-06T06:36:33.514Z,576.00
2018-11-06T06:37:33.425Z,592.00
2018-11-06T06:38:33.423Z,612.00
2018-11-06T06:39:33.274Z,628.00
2018-11-06T06:40:33.175Z,648.00
2018-11-06T06:41:33.099Z,660.00
2018-11-06T06:42:33.013Z,668.00
2018-11-06T06:43:32.935Z,676.00
2018-11-06T06:44:32.851Z,696.00
2018-11-06T06:45:32.763Z,720.00
2018-11-06T06:46:32.676Z,752.00
2018-11-06T06:47:32.600Z,792.00
2018-11-06T06:48:32.515Z,816.00
2018-11-06T06:49:32.425Z,836.00
2018-11-06T06:50:32.351Z,856.00
2018-11-06T06:51:32.263Z,872.00
2018-11-06T06:52:32.176Z,892.00
2018-11-06T06:53:32.090Z,912.00
2018-11-06T06:54:32.155Z,932.00
2018-11-06T06:55:31.926Z,952.00
2018-11-06T06:56:31.852Z,972.00
2018-11-06T06:57:31.763Z,988.00
2018-11-06T06:58:31.677Z,1008.00
2018-11-06T06:59:31.592Z,1024.00
2018-11-06T07:00:31.513Z,1044.00
2018-11-06T07:01:31.427Z,1060.00
2018-11-06T07:02:31.393Z,1076.00
2018-11-06T07:03:31.264Z,1096.00
2018-11-06T07:04:31.179Z,1112.00
2018-11-06T07:05:31.090Z,1128.00
2018-11-06T07:06:31.014Z,1144.00
2018-11-06T07:07:30.927Z,1160.00
2018-11-06T07:08:30.852Z,1172.00
2018-11-06T07:09:30.764Z,1196.00
2018-11-06T07:10:30.678Z,1212.00
2018-11-06T07:11:30.602Z,1232.00
2018-11-06T07:12:30.515Z,1252.00
2018-11-06T07:13:30.439Z,1272.00
2018-11-06T07:14:30.353Z,1292.00
2018-11-06T07:15:30.264Z,1312.00
2018-11-06T07:16:30.180Z,1324.00
2018-11-06T07:17:30.092Z,1344.00
2018-11-06T07:18:30.067Z,1368.00
2018-11-06T07:19:29.929Z,1392.00
2018-11-06T07:20:29.854Z,1424.00
2018-11-06T07:21:29.767Z,1452.00
2018-11-06T07:22:29.681Z,1460.00
2018-11-06T07:23:29.604Z,1480.00
2018-11-06T07:24:29.515Z,1496.00
2018-11-06T07:25:29.440Z,1504.00
2018-11-06T07:26:29.354Z,1532.00
2018-11-06T07:27:29.271Z,1576.00
2018-11-06T07:28:29.180Z,1568.00
2018-11-06T07:29:29.106Z,1556.00
2018-11-06T07:30:29.016Z,1564.00
2018-11-06T07:31:28.930Z,1572.00
2018-11-06T07:32:28.865Z,1580.00
2018-11-06T07:33:28.768Z,1588.00
2018-11-06T07:34:28.765Z,1604.00
2018-11-06T07:35:28.735Z,1620.00
2018-11-06T07:36:28.531Z,1648.00
2018-11-06T07:37:28.444Z,1672.00
2018-11-06T07:38:28.361Z,1696.00
2018-11-06T07:39:28.269Z,1732.00
2018-11-06T07:40:28.226Z,1772.00
2018-11-06T07:41:28.107Z,1812.00
2018-11-06T07:42:28.034Z,1844.00
2018-11-06T07:43:27.948Z,1888.00
2018-11-06T07:44:27.857Z,1940.00
2018-11-06T07:45:27.769Z,2024.00
2018-11-06T07:46:27.694Z,2080.00
2018-11-06T07:47:27.609Z,2088.00
2018-11-06T07:48:27.531Z,2124.00
2018-11-06T07:49:27.444Z,2144.00
2018-11-06T07:50:27.414Z,2176.00
2018-11-06T07:51:27.282Z,2224.00
2018-11-06T07:52:27.196Z,2284.00
2018-11-06T07:53:27.107Z,2344.00
2018-11-06T07:54:27.033Z,2396.00
2018-11-06T07:55:26.977Z,2460.00
2018-11-06T07:56:26.871Z,2456.00
2018-11-06T07:57:26.783Z,2448.00
2018-11-06T07:58:26.695Z,2424.00
2018-11-06T07:59:26.636Z,2376.00
2018-11-06T08:00:26.535Z,2396.00
2018-11-06T08:01:26.458Z,2468.00
2018-11-06T08:02:26.370Z,2516.00
2018-11-06T08:03:26.284Z,2424.00
2018-11-06T08:04:26.328Z,2364.00
2018-11-06T08:05:26.120Z,2432.00
2018-11-06T08:06:26.092Z,2492.00
2018-11-06T08:07:25.959Z,2464.00
2018-11-06T08:08:25.871Z,2440.00
2018-11-06T08:09:25.840Z,2400.00
2018-11-06T08:10:25.721Z,2352.00
2018-11-06T08:11:25.637Z,2336.00
2018-11-06T08:12:25.547Z,2424.00
2018-11-06T08:13:25.461Z,2528.00
2018-11-06T08:14:25.423Z,2552.00
2018-11-06T08:15:25.297Z,2576.00
2018-11-06T08:16:25.222Z,2564.00
2018-11-06T08:17:25.139Z,2584.00
2018-11-06T08:18:25.061Z,2616.00
2018-11-06T08:19:24.971Z,2596.00
2018-11-06T08:20:24.934Z,2564.00
2018-11-06T08:21:24.810Z,2680.00
2018-11-06T08:22:24.722Z,2640.00
2018-11-06T08:23:24.660Z,2540.00
2018-11-06T08:24:24.560Z,2564.00
2018-11-06T08:25:24.486Z,2596.00
2018-11-06T08:26:24.399Z,2596.00
2018-11-06T08:27:24.322Z,2624.00
2018-11-06T08:28:24.236Z,2704.00
2018-11-06T08:29:24.160Z,2744.00
2018-11-06T08:30:24.101Z,2792.00
2018-11-06T08:31:24.451Z,2876.00
2018-11-06T08:32:24.297Z,2848.00
2018-11-06T08:33:23.823Z,2820.00
2018-11-06T08:34:23.737Z,2808.00
2018-11-06T08:35:23.662Z,2872.00
2018-11-06T08:36:23.674Z,2896.00
2018-11-06T08:37:23.500Z,2912.00
2018-11-06T08:38:23.412Z,2936.00
2018-11-06T08:39:23.337Z,3012.00
2018-11-06T08:40:23.251Z,3244.00
2018-11-06T08:41:23.175Z,3468.00
2018-11-06T08:42:23.126Z,3604.00
2018-11-06T08:43:23.000Z,3412.00
2018-11-06T08:44:22.924Z,3332.00
2018-11-06T08:45:22.839Z,3500.00
2018-11-06T08:46:22.764Z,3712.00
2018-11-06T08:47:22.675Z,3748.00
2018-11-06T08:48:22.601Z,3728.00
2018-11-06T08:49:22.516Z,3572.00
2018-11-06T08:50:22.439Z,3380.00
2018-11-06T08:51:22.352Z,3268.00
2018-11-06T08:52:22.276Z,3344.00
2018-11-06T08:53:22.189Z,3044.00
2018-11-06T08:54:22.118Z,2904.00
2018-11-06T08:55:22.026Z,2880.00
2018-11-06T08:56:21.953Z,2924.00
2018-11-06T08:57:21.865Z,2924.00
2018-11-06T08:58:21.790Z,2924.00
2018-11-06T08:59:21.717Z,2904.00
2018-11-06T09:00:21.629Z,2872.00
2018-11-06T09:01:21.543Z,2852.00
2018-11-06T09:02:21.470Z,2840.00
2018-11-06T09:03:21.377Z,2828.00
2018-11-06T09:04:21.303Z,2808.00
2018-11-06T09:05:21.216Z,2804.00
2018-11-06T09:06:21.129Z,2808.00
2018-11-06T09:07:21.052Z,2812.00
2018-11-06T09:08:20.984Z,2792.00
2018-11-06T09:09:20.891Z,2784.00
2018-11-06T09:10:20.808Z,2800.00
2018-11-06T09:11:20.728Z,2808.00
2018-11-06T09:12:20.653Z,2836.00
2018-11-06T09:13:20.566Z,2840.00
2018-11-06T09:14:20.479Z,2836.00
2018-11-06T09:15:20.404Z,2828.00
2018-11-06T09:16:20.317Z,2832.00
2018-11-06T09:17:20.243Z,2816.00
2018-11-06T09:18:20.154Z,2824.00
2018-11-06T09:19:20.078Z,2828.00
2018-11-06T09:20:20.004Z,2816.00
2018-11-06T09:21:19.916Z,2804.00
2018-11-06T09:22:19.841Z,2808.00
2018-11-06T09:23:19.754Z,2840.00
2018-11-06T09:24:19.667Z,2844.00
2018-11-06T09:25:19.595Z,2856.00
2018-11-06T09:26:19.504Z,2868.00
2018-11-06T09:27:19.430Z,2892.00
2018-11-06T09:28:19.344Z,2912.00
2018-11-06T09:29:19.273Z,2932.00
2018-11-06T09:30:19.187Z,2952.00
2018-11-06T09:31:19.106Z,3004.00
2018-11-06T09:32:19.022Z,3036.00
2018-11-06T09:33:18.944Z,3044.00
2018-11-06T09:34:18.856Z,3020.00
2018-11-06T09:35:18.794Z,3016.00
2018-11-06T09:36:18.694Z,3012.00
2018-11-06T09:37:18.624Z,3036.00
2018-11-06T09:38:18.530Z,3068.00
2018-11-06T09:39:18.455Z,3104.00
2018-11-06T09:40:18.369Z,3116.00
2018-11-06T09:41:18.330Z,3124.00
2018-11-06T09:42:18.206Z,3152.00
2018-11-06T09:43:18.131Z,3196.00
2018-11-06T09:44:18.045Z,3236.00
2018-11-06T09:45:18.009Z,3260.00
2018-11-06T09:46:17.881Z,3280.00
2018-11-06T09:47:17.807Z,3304.00
2018-11-06T09:48:17.720Z,3312.00
2018-11-06T09:49:17.646Z,3312.00
2018-11-06T09:50:17.561Z,3336.00
2018-11-06T09:51:17.482Z,3360.00
2018-11-06T09:52:17.396Z,3384.00
2018-11-06T09:53:17.322Z,3404.00
2018-11-06T09:54:17.234Z,3428.00
2018-11-06T09:55:17.158Z,3448.00
2018-11-06T09:56:17.073Z,3472.00
2018-11-06T09:57:16.996Z,3504.00
2018-11-06T09:58:16.908Z,3524.00
2018-11-06T09:59:16.835Z,3560.00
2018-11-06T10:00:16.797Z,3588.00
2018-11-06T10:01:16.672Z,3604.00
2018-11-06T10:02:16.583Z,3600.00
2018-11-06T10:03:16.509Z,3604.00
2018-11-06T10:04:16.421Z,3652.00
2018-11-06T10:05:16.347Z,3684.00
2018-11-06T10:06:16.309Z,3696.00
2018-11-06T10:07:16.462Z,3696.00
2018-11-06T10:08:16.109Z,3688.00
2018-11-06T10:09:16.055Z,3712.00
2018-11-06T10:10:15.936Z,3724.00
2018-11-06T10:11:15.859Z,3748.00
2018-11-06T10:12:15.787Z,3756.00
2018-11-06T10:13:15.699Z,3796.00
2018-11-06T10:14:15.623Z,3784.00
2018-11-06T10:15:15.535Z,3776.00
2018-11-06T10:16:15.460Z,3796.00
2018-11-06T10:17:15.374Z,3812.00
2018-11-06T10:18:15.298Z,3824.00
2018-11-06T10:19:15.211Z,3884.00
2018-11-06T10:20:15.135Z,3904.00
2018-11-06T10:21:15.068Z,3920.00
2018-11-06T10:22:14.974Z,3980.00
2018-11-06T10:23:14.899Z,4004.00
2018-11-06T10:24:14.810Z,3980.00
2018-11-06T10:25:14.735Z,4056.00
2018-11-06T10:26:14.649Z,4068.00
2018-11-06T10:27:14.582Z,4080.00
2018-11-06T10:28:14.487Z,4068.00
2018-11-06T10:29:14.411Z,4048.00
2018-11-06T10:30:14.336Z,4012.00
2018-11-06T10:31:14.251Z,4044.00
2018-11-06T10:32:14.175Z,4068.00
2018-11-06T10:33:14.088Z,4096.00
2018-11-06T10:34:14.012Z,4120.00
2018-11-06T10:35:13.925Z,4108.00
2018-11-06T10:36:13.852Z,4104.00
2018-11-06T10:37:13.763Z,4104.00
2018-11-06T10:38:13.758Z,4116.00
2018-11-06T10:39:13.615Z,4080.00
2018-11-06T10:40:13.525Z,4036.00
2018-11-06T10:41:13.453Z,3996.00
2018-11-06T10:42:13.363Z,3976.00
2018-11-06T10:43:13.287Z,3956.00
2018-11-06T10:44:13.213Z,3944.00
2018-11-06T10:45:13.126Z,3908.00
2018-11-06T10:46:13.055Z,3892.00
2018-11-06T10:47:12.976Z,3904.00
2018-11-06T10:48:12.888Z,3876.00
2018-11-06T10:49:12.813Z,3860.00
2018-11-06T10:50:12.739Z,3832.00
2018-11-06T10:51:12.651Z,3832.00
2018-11-06T10:52:12.577Z,3816.00
2018-11-06T10:53:12.489Z,3812.00
2018-11-06T10:54:12.413Z,3804.00
2018-11-06T10:55:12.333Z,3828.00
2018-11-06T10:56:12.254Z,3868.00
2018-11-06T10:57:12.178Z,3856.00
2018-11-06T10:58:12.155Z,3924.00
2018-11-06T10:59:12.015Z,3828.00
2018-11-06T11:00:11.939Z,3812.00
2018-11-06T11:01:11.859Z,3920.00
2018-11-06T11:02:11.779Z,4096.00
2018-11-06T11:03:11.694Z,4768.00
2018-11-06T11:04:11.675Z,4756.00
2018-11-06T11:05:11.542Z,4668.00
2018-11-06T11:06:11.455Z,4820.00
2018-11-06T11:07:11.378Z,4792.00
2018-11-06T11:08:11.304Z,4716.00
2018-11-06T11:09:11.220Z,4936.00
2018-11-06T11:10:11.179Z,4928.00
2018-11-06T11:11:11.066Z,5136.00
2018-11-06T11:12:10.991Z,5140.00
2018-11-06T11:13:10.953Z,5140.00
2018-11-06T11:14:10.848Z,5180.00
2018-11-06T11:15:10.756Z,5192.00
2018-11-06T11:16:10.667Z,5240.00
2018-11-06T11:17:10.592Z,5336.00
2018-11-06T11:18:10.530Z,5436.00
2018-11-06T11:19:10.446Z,5476.00
2018-11-06T11:20:10.410Z,5456.00
2018-11-06T11:21:10.280Z,5488.00
2018-11-06T11:22:10.205Z,5488.00
2018-11-06T11:23:10.131Z,5464.00
2018-11-06T11:24:10.061Z,5448.00
2018-11-06T11:25:09.968Z,5468.00
2018-11-06T11:26:09.892Z,5488.00
2018-11-06T11:27:09.819Z,5500.00
2018-11-06T11:28:09.743Z,5500.00
2018-11-06T11:29:09.669Z,5492.00
2018-11-06T11:30:09.593Z,5460.00
2018-11-06T11:31:09.506Z,5468.00
2018-11-06T11:32:09.432Z,5448.00
2018-11-06T11:33:09.358Z,5404.00
2018-11-06T11:34:09.282Z,5424.00
2018-11-06T11:35:09.207Z,5396.00
2018-11-06T11:36:09.132Z,5408.00
2018-11-06T11:37:09.044Z,5420.00
2018-11-06T11:38:08.971Z,5416.00
2018-11-06T11:39:08.899Z,5384.00
2018-11-06T11:40:08.824Z,5380.00
2018-11-06T11:41:08.760Z,5316.00
2018-11-06T11:42:08.675Z,5320.00
2018-11-06T11:43:08.597Z,5340.00
2018-11-06T11:44:08.524Z,5328.00
2018-11-06T11:45:08.437Z,5272.00
2018-11-06T11:46:08.359Z,5284.00
2018-11-06T11:47:08.283Z,5260.00
2018-11-06T11:48:08.209Z,5248.00
2018-11-06T11:49:08.133Z,5216.00
2018-11-06T11:50:08.058Z,5184.00
2018-11-06T11:51:07.987Z,5180.00
2018-11-06T11:52:07.914Z,5160.00
2018-11-06T11:53:07.822Z,5168.00
2018-11-06T11:54:07.747Z,5160.00
2018-11-06T11:55:07.672Z,5108.00
2018-11-06T11:56:07.621Z,5124.00
2018-11-06T11:57:07.522Z,5112.00
2018-11-06T11:58:07.447Z,5100.00
2018-11-06T11:59:07.371Z,5080.00
2018-11-06T12:00:07.371Z,5064.00
2018-11-06T12:01:07.223Z,5040.00
2018-11-06T12:02:07.212Z,5040.00
2018-11-06T12:03:07.072Z,5024.00
2018-11-06T12:04:07.002Z,5020.00
2018-11-06T12:05:06.922Z,5008.00
2018-11-06T12:06:06.836Z,5024.00
2018-11-06T12:07:06.761Z,5024.00
2018-11-06T12:08:06.697Z,5028.00
2018-11-06T12:09:06.616Z,5004.00
2018-11-06T12:10:06.547Z,5000.00
2018-11-06T12:11:06.461Z,4936.00
2018-11-06T12:12:06.397Z,4912.00
2018-11-06T12:13:06.311Z,4872.00
2018-11-06T12:14:06.235Z,4844.00
2018-11-06T12:15:06.161Z,4828.00
2018-11-06T12:16:06.087Z,4816.00
2018-11-06T12:17:06.011Z,4820.00
2018-11-06T12:18:05.973Z,4796.00
2018-11-06T12:19:05.862Z,4740.00
2018-11-06T12:20:05.787Z,4756.00
2018-11-06T12:21:05.702Z,4728.00
2018-11-06T12:22:05.637Z,4740.00
2018-11-06T12:23:05.549Z,4724.00
2018-11-06T12:24:05.491Z,4716.00
2018-11-06T12:25:05.528Z,4728.00
2018-11-06T12:26:05.337Z,4700.00
2018-11-06T12:27:05.250Z,4656.00
2018-11-06T12:28:05.175Z,4612.00
2018-11-06T12:29:05.101Z,4596.00
2018-11-06T12:30:05.028Z,4572.00
2018-11-06T12:31:04.952Z,4556.00
2018-11-06T12:32:04.876Z,4524.00
2018-11-06T12:33:04.800Z,4540.00
2018-11-06T12:34:04.734Z,4552.00
2018-11-06T12:35:04.650Z,4548.00
2018-11-06T12:36:04.588Z,4588.00
2018-11-06T12:37:04.548Z,4560.00
2018-11-06T12:38:04.415Z,4528.00
2018-11-06T12:39:04.339Z,4544.00